Latest Weather Observations for Cowra

IDN60801

Issued at 3:12 pm EDT Sunday 17 February 2019 (issued every 10 minutes, with the page automatically refreshed every 10 minutes)

About weather observations | Map of weather stations | Latest weather observations for NSW | Other Formats
Station Details ID: 065111 Name: COWRA AIRPORT AWS Lat: -33.84 Lon: 148.65 Height: 300.4 m
Data from the previous 72 hours. | See also: Recent months at Cowra
Date/Time
EDT
Temp
°C
App
Temp
°C
Dew
Point
°C
Rel
Hum
%
Delta-T
°C
Wind Press
QNH
hPa
Press
MSL
hPa
Rain since
9am
mm
Dir  Spd
km/h
Gust
km/h
Spd
kts
Gust
kts
17/03:00pm 34.4 31.5 6.7 18 15.4 NW 11 26 6 14 1011.5 1009.9 0.0
17/02:30pm 33.8 31.0 7.0 19 14.9 NW 11 20 6 11 1012.0 1010.5 0.0
17/02:00pm 33.7 31.7 6.9 19 14.9 WNW 7 15 4 8 1012.5 1011.0 0.0
17/01:30pm 33.1 30.7 7.1 20 14.4 NNW 9 17 5 9 1012.9 1011.4 0.0
17/01:00pm 32.8 31.3 6.9 20 14.3 SE 4 9 2 5 1013.2 1011.7 0.0
17/12:30pm 31.7 29.4 7.4 22 13.5 NNW 9 24 5 13 1014.0 1012.4 0.0
17/12:00pm 30.9 28.0 8.0 24 12.7 NW 13 19 7 10 1014.4 1012.8 0.0
17/11:30am 30.3 28.4 11.8 32 10.9 WNW 13 19 7 10 1014.8 1013.3 0.0
17/11:00am 28.5 27.0 12.0 36 9.7 WNW 11 15 6 8 1015.0 1013.5 0.0
17/10:30am 26.7 25.6 12.0 40 8.6 NNW 9 17 5 9 1015.3 1013.8 0.0
17/10:00am 24.5 23.9 11.8 45 7.3 NNW 6 11 3 6 1015.3 1013.8 0.0
17/09:30am 23.0 22.4 12.3 51 6.2 WNW 7 9 4 5 1015.5 1014.0 0.0
17/09:00am 20.8 20.1 11.4 55 5.3 NNW 6 7 3 4 1015.6 1014.1 0.0
17/08:30am 19.3 18.7 10.3 56 4.9 N 4 7 2 4 1015.5 1014.0 0.0
17/08:00am 17.4 17.6 10.5 64 3.7 CALM 0 0 0 0 1015.3 1013.8 0.0
17/07:30am 14.9 14.8 9.3 69 2.9 CALM 0 2 0 1 1015.0 1013.5 0.0
17/07:00am 13.7 12.6 8.3 70 2.7 S 4 9 2 5 1014.8 1013.3 0.0
17/06:30am 14.3 13.3 8.7 69 2.9 SSW 4 7 2 4 1014.6 1013.0 0.0
17/06:00am 15.3 14.5 8.3 63 3.6 ESE 2 7 1 4 1014.2 1012.6 0.0
17/05:30am 16.4 14.9 9.1 62 3.8 SE 7 9 4 5 1014.1 1012.5 0.0
17/05:00am 16.8 15.3 9.0 60 4.1 ESE 7 9 4 5 1014.0 1012.4 0.0
17/04:30am 17.5 15.9 8.9 57 4.5 ESE 7 11 4 6 1014.0 1012.4 0.0
17/04:00am 18.3 16.1 9.4 56 4.7 ESE 11 13 6 7 1014.2 1012.6 0.0
17/03:30am 17.8 15.9 8.9 56 4.7 SE 9 11 5 6 1014.3 1012.7 0.0
17/03:00am 17.3 15.5 7.9 54 4.8 SE 7 9 4 5 1014.4 1012.8 0.0
17/02:30am 18.3 16.3 8.6 53 5.1 ESE 9 11 5 6 1014.5 1012.9 0.0
17/02:00am 17.6 16.1 8.5 55 4.7 E 6 9 3 5 1014.6 1013.0 0.0
17/01:30am 17.9 15.9 8.7 55 4.8 E 9 11 5 6 1014.8 1013.3 0.0
17/01:00am 18.1 17.8 8.7 54 4.9 CALM 0 0 0 0 1015.1 1013.6 0.0
17/12:30am 18.5 17.5 8.7 53 5.2 S 4 7 2 4 1015.4 1013.9 0.0
17/12:00am 18.7 18.5 9.2 54 5.1 CALM 0 0 0 0 1015.5 1014.0 0.0
 
Date/Time
EDT
Temp
°C
App
Temp
°C
Dew
Point
°C
Rel
Hum
%
Delta-T
°C
Wind Press
QNH
hPa
Press
MSL
hPa
Rain since
9am
mm
Dir  Spd
km/h
Gust
km/h
Spd
kts
Gust
kts
16/11:30pm 20.0 19.6 8.4 47 6.1 CALM 0 0 0 0 1015.6 1014.1 0.0
16/11:00pm 21.2 19.5 8.5 44 6.8 SE 7 9 4 5 1015.6 1014.1 0.0
16/10:30pm 22.4 20.8 8.1 40 7.6 ESE 6 9 3 5 1015.8 1014.3 0.0
16/10:00pm 23.7 21.5 7.8 36 8.5 S 9 11 5 6 1015.8 1014.3 0.0
16/09:30pm 25.1 22.6 8.1 34 9.2 S 11 13 6 7 1015.7 1014.2 0.0
16/09:00pm 25.3 23.1 7.9 33 9.4 S 9 11 5 6 1015.6 1014.1 0.0
16/08:30pm 26.7 26.2 7.7 30 10.3 CALM 0 0 0 0 1015.3 1013.8 0.0
16/08:00pm 28.4 27.0 7.1 26 11.5 N 4 6 2 3 1015.1 1013.6 0.0
16/07:30pm 29.2 27.8 7.2 25 12.0 NNW 4 6 2 3 1015.0 1013.5 0.0
16/07:00pm 29.4 27.5 6.7 24 12.3 WNW 6 7 3 4 1015.1 1013.6 0.0
16/06:30pm 29.8 28.4 7.1 24 12.4 SW 4 7 2 4 1015.1 1013.6 0.0
16/06:00pm 29.7 27.3 7.0 24 12.4 WNW 9 13 5 7 1015.3 1013.8 0.0
16/05:30pm 29.9 27.9 7.2 24 12.4 NW 7 11 4 6 1015.5 1014.0 0.0
16/05:00pm 30.3 28.4 6.9 23 12.7 SW 6 17 3 9 1015.6 1014.1 0.0
16/04:30pm 30.3 28.3 6.9 23 12.8 WNW 7 13 4 7 1015.8 1014.3 0.0
16/04:00pm 30.2 28.5 7.4 24 12.5 W 6 13 3 7 1016.2 1014.7 0.0
16/03:30pm 29.6 27.3 7.5 25 12.1 NNE 9 13 5 7 1016.5 1015.0 0.0
16/03:00pm 29.7 26.9 7.0 24 12.3 N 11 17 6 9 1017.1 1015.5 0.0
16/02:30pm 29.8 27.4 7.1 24 12.4 NW 9 17 5 9 1017.6 1016.0 0.0
16/02:00pm 31.0 29.6 8.7 25 12.5 NW 6 11 3 6 1018.0 1016.5 0.0
16/01:30pm 29.7 26.9 8.7 27 11.8 NW 13 19 7 10 1018.5 1017.0 0.0
16/01:00pm 27.7 24.5 7.0 27 11.1 NW 13 19 7 10 1019.0 1017.5 0.0
16/12:30pm 27.9 25.4 8.2 29 10.8 NW 11 19 6 10 1019.5 1018.0 0.0
16/12:00pm 26.8 23.9 8.3 31 10.1 NW 13 19 7 10 1019.9 1018.4 0.0
16/11:30am 26.0 23.1 9.8 36 9.1 NW 15 20 8 11 1020.0 1018.5 0.0
16/11:00am 26.2 24.0 10.8 38 8.8 N 13 20 7 11 1020.2 1018.7 0.0
16/10:30am 25.1 22.7 10.2 39 8.4 NE 13 24 7 13 1020.5 1018.9 0.0
16/10:00am 23.2 21.1 9.6 42 7.5 ENE 11 19 6 10 1020.7 1019.2 0.0
16/09:30am 22.1 20.2 10.6 48 6.4 E 11 15 6 8 1020.9 1019.4 0.0
16/09:00am 20.9 19.4 10.4 51 5.8 ESE 9 13 5 7 1021.2 1019.7 0.0
16/08:30am 19.7 18.2 10.7 56 5.0 ESE 9 13 5 7 1021.2 1019.7 0.0
16/08:00am 17.5 16.4 10.6 64 3.7 SE 7 9 4 5 1021.0 1019.5 0.0
16/07:30am 16.6 15.1 10.7 68 3.2 ESE 9 13 5 7 1020.8 1019.3 0.0
16/07:00am 13.9 13.8 9.5 75 2.3 CALM 0 6 0 3 1020.7 1019.2 0.0
16/06:30am 14.3 13.0 9.3 72 2.6 ESE 6 7 3 4 1020.2 1018.7 0.0
16/06:00am 15.9 14.7 9.6 66 3.3 SSE 6 7 3 4 1020.0 1018.5 0.0
16/05:30am 15.8 14.5 9.9 68 3.1 SSE 7 9 4 5 1020.0 1018.5 0.0
16/05:00am 15.4 13.8 8.9 65 3.4 S 7 9 4 5 1020.0 1018.5 0.0
16/04:30am 16.4 15.5 9.1 62 3.8 SSE 4 7 2 4 1019.9 1018.4 0.0
16/04:00am 17.3 16.5 9.5 60 4.1 E 4 7 2 4 1020.1 1018.6 0.0
16/03:30am 18.2 16.2 10.1 59 4.4 E 11 19 6 10 1020.3 1018.8 0.0
16/03:00am 18.5 16.1 10.1 58 4.5 E 13 19 7 10 1020.5 1018.9 0.0
16/02:30am 19.0 17.0 10.3 57 4.7 E 11 17 6 9 1020.6 1019.0 0.0
16/02:00am 19.5 17.6 10.5 56 4.9 E 11 20 6 11 1020.9 1019.4 0.0
16/01:30am 20.0 16.7 11.0 56 5.0 E 19 28 10 15 1021.1 1019.6 0.0
16/01:00am 20.7 17.8 11.1 54 5.3 E 17 26 9 14 1021.4 1019.9 0.0
16/12:30am 21.2 19.4 11.0 52 5.7 E 11 19 6 10 1021.5 1020.0 0.0
16/12:00am 21.9 19.7 10.7 49 6.2 E 13 20 7 11 1021.3 1019.8 0.0
 
Date/Time
EDT
Temp
°C
App
Temp
°C
Dew
Point
°C
Rel
Hum
%
Delta-T
°C
Wind Press
QNH
hPa
Press
MSL
hPa
Rain since
9am
mm
Dir  Spd
km/h
Gust
km/h
Spd
kts
Gust
kts
15/11:30pm 22.7 19.7 10.5 46 6.8 ESE 17 28 9 15 1021.1 1019.6 0.0
15/11:00pm 23.5 20.8 10.2 43 7.4 E 15 22 8 12 1020.8 1019.3 0.0
15/10:30pm 24.3 21.4 9.8 40 8.0 E 15 24 8 13 1020.8 1019.3 0.0
15/10:00pm 25.2 22.4 9.9 38 8.5 E 15 26 8 14 1020.6 1019.0 0.0
15/09:30pm 26.2 23.0 10.0 36 9.1 ENE 17 26 9 14 1020.0 1018.5 0.0
15/09:00pm 27.0 23.3 9.4 33 9.8 ENE 19 28 10 15 1019.2 1017.7 0.0
15/08:30pm 28.3 24.4 8.6 29 10.9 ENE 19 30 10 16 1018.8 1017.3 0.0
15/08:00pm 29.6 26.7 6.3 23 12.5 SE 11 17 6 9 1018.1 1016.6 0.0
15/07:30pm 30.9 28.4 6.7 22 13.2 SE 9 15 5 8 1017.8 1016.3 0.0
15/07:00pm 31.5 29.0 6.5 21 13.6 SE 9 15 5 8 1017.7 1016.2 0.0
15/06:30pm 31.9 29.1 6.9 21 13.7 SE 11 17 6 9 1017.7 1016.2 0.0
15/06:00pm 32.1 29.5 6.3 20 14.0 SSE 9 13 5 7 1017.8 1016.3 0.0
15/05:30pm 32.8 30.4 5.4 18 14.8 WNW 7 9 4 5 1017.8 1016.3 0.0
15/05:00pm 31.9 28.2 4.6 18 14.4 ESE 13 20 7 11 1018.0 1016.5 0.0
15/04:30pm 31.6 28.7 6.6 21 13.7 SE 11 26 6 14 1018.2 1016.7 0.0
15/04:00pm 31.4 28.1 6.5 21 13.5 E 13 24 7 13 1018.6 1017.1 0.0
15/03:30pm 31.7 29.4 7.4 22 13.5 SSE 9 17 5 9 1019.0 1017.5 0.0
15/03:00pm 31.5 29.5 7.2 22 13.4 SE 7 15 4 8 1019.5 1018.0 0.0
15/02:30pm 30.9 28.4 8.0 24 12.8 SSW 11 19 6 10 1019.9 1018.4 0.0
15/02:00pm 30.4 28.4 8.7 26 12.2 SSW 9 20 5 11 1020.5 1018.9 0.0
15/01:30pm 29.3 26.3 7.8 26 11.8 SSE 13 17 7 9 1020.9 1019.4 0.0
15/01:00pm 28.3 25.5 8.6 29 10.9 S 13 22 7 12 1021.4 1019.9 0.0
15/12:30pm 28.2 27.0 9.5 31 10.5 E 6 11 3 6 1022.0 1020.5 0.0
15/12:00pm 27.1 25.7 9.5 33 9.8 SE 7 15 4 8 1022.6 1021.1 0.0
15/11:30am 26.5 24.7 9.4 34 9.5 E 9 19 5 10 1023.0 1021.5 0.0
15/11:00am 25.6 23.8 9.4 36 9.0 E 9 15 5 8 1023.3 1021.8 0.0
15/10:30am 23.9 22.2 9.9 41 7.8 SE 9 13 5 7 1023.6 1022.2 0.0
15/10:00am 23.0 21.7 10.1 44 7.1 ESE 7 17 4 9 1023.5 1022.0 0.0
15/09:30am 21.9 20.7 10.4 48 6.4 E 7 13 4 7 1023.5 1022.0 0.0
15/09:00am 21.5 20.3 11.5 53 5.6 SSE 9 17 5 9 1023.2 1021.7 0.0
15/08:30am 19.6 18.2 10.9 57 4.8 S 9 11 5 6 1023.0 1021.5 0.0
15/08:00am 19.2 18.9 11.3 60 4.4 ESE 4 7 2 4 1022.9 1021.4 0.0
15/07:30am 15.6 14.5 8.6 63 3.6 SSE 4 11 2 6 1022.5 1021.0 0.0
15/07:00am 16.2 15.1 10.5 69 3.1 E 7 11 4 6 1022.3 1020.8 0.0
15/06:30am 14.8 13.7 8.3 65 3.3 SE 4 9 2 5 1022.0 1020.5 0.0
15/06:00am 14.9 13.4 8.6 66 3.2 ESE 6 7 3 4 1021.6 1020.1 0.0
15/05:30am 14.7 13.3 8.9 68 3.0 SSE 6 7 3 4 1021.4 1019.9 0.0
15/05:00am 15.4 15.0 8.4 63 3.6 CALM 0 0 0 0 1021.2 1019.7 0.0
15/04:30am 15.4 13.7 8.4 63 3.6 SSE 7 11 4 6 1020.9 1019.4 0.0
15/04:00am 16.4 15.4 8.9 61 3.9 NE 4 7 2 4 1020.5 1018.9 0.0
15/03:30am 16.1 15.6 7.8 58 4.2 CALM 0 0 0 0 1020.6 1019.0 0.0
15/03:00am 16.4 14.7 7.6 56 4.5 SSW 6 9 3 5 1020.6 1019.0 0.0
15/02:30am 17.0 15.2 7.9 55 4.7 SSE 7 9 4 5 1020.1 1018.6 0.0
15/02:00am 17.3 16.7 7.4 52 5.0 CALM 0 0 0 0 1020.1 1018.6 0.0
15/01:30am 17.3 16.6 6.8 50 5.3 CALM 0 0 0 0 1020.0 1018.5 0.0
15/01:00am 17.6 15.4 5.2 44 6.0 ENE 6 9 3 5 1019.8 1018.3 0.0
15/12:30am 19.2 16.6 6.3 43 6.5 SE 9 11 5 6 1019.7 1018.2 0.0
15/12:00am 18.9 17.8 5.0 40 6.8 CALM 0 0 0 0 1019.5 1018.0 0.0
 
Date/Time
EDT
Temp
°C
App
Temp
°C
Dew
Point
°C
Rel
Hum
%
Delta-T
°C
Wind Press
QNH
hPa
Press
MSL
hPa
Rain since
9am
mm
Dir  Spd
km/h
Gust
km/h
Spd
kts
Gust
kts
14/11:30pm 19.5 17.1 4.4 37 7.4 SSE 6 7 3 4 1019.3 1017.8 0.0
14/11:00pm 20.5 18.0 4.9 36 7.7 SE 7 11 4 6 1019.3 1017.8 0.0
14/10:30pm 21.3 18.9 5.2 35 8.1 SE 7 9 4 5 1019.2 1017.7 0.0
14/10:00pm 22.5 19.8 5.4 33 8.7 SSE 9 13 5 7 1019.0 1017.5 0.0
14/09:30pm 23.4 20.2 6.7 34 8.7 S 13 17 7 9 1018.6 1017.1 0.0
14/09:00pm 23.3 20.1 7.0 35 8.5 S 13 17 7 9 1018.2 1016.7 0.0
14/08:30pm 24.3 21.0 6.6 32 9.3 S 13 19 7 10 1017.9 1016.4 0.0
14/08:00pm 25.4 21.4 6.6 30 9.9 SSW 17 20 9 11 1017.6 1016.0 0.0
14/07:30pm 27.0 23.6 7.5 29 10.6 SSW 15 20 8 11 1017.1 1015.5 0.0
14/07:00pm 28.1 25.3 6.8 26 11.4 SSE 11 17 6 9 1016.7 1015.2 0.0
14/06:30pm 28.4 25.1 4.6 22 12.3 S 11 17 6 9 1016.5 1015.0 0.0
14/06:00pm 29.1 27.3 5.2 22 12.6 S 4 15 2 8 1016.4 1014.9 0.0
14/05:30pm 28.6 26.2 4.2 21 12.6 E 6 15 3 8 1016.5 1015.0 0.0
14/05:00pm 28.5 25.6 4.7 22 12.4 SSE 9 19 5 10 1016.6 1015.1 0.0
14/04:30pm 28.9 26.0 4.4 21 12.7 WSW 9 15 5 8 1016.6 1015.1 0.0
14/04:00pm 28.7 25.5 4.9 22 12.4 SW 11 17 6 9 1016.7 1015.2 0.0
14/03:30pm 28.6 26.1 6.7 25 11.8 SW 9 17 5 9 1016.8 1015.3 0.0

Other Formats:

Comma delimited format used in spreadsheet applications
http://www.bom.gov.au/fwo/IDN60801/IDN60801.95721.axf

JavaScript Object Notation format (JSON) in row-major order
http://www.bom.gov.au/fwo/IDN60801/IDN60801.95721.json